sensor_id;sensor_type;location;lat;lon;timestamp;P1;durP1;ratioP1;P2;durP2;ratioP2
24483;SDS011;12643;51.620;7.548;2024-03-07T00:01:04;65.13;;;35.15;;
24483;SDS011;12643;51.620;7.548;2024-03-07T00:03:33;68.90;;;37.00;;
24483;SDS011;12643;51.620;7.548;2024-03-07T00:06:01;69.22;;;37.45;;
24483;SDS011;12643;51.620;7.548;2024-03-07T00:08:29;63.05;;;36.65;;
24483;SDS011;12643;51.620;7.548;2024-03-07T00:10:57;60.55;;;34.05;;
24483;SDS011;12643;51.620;7.548;2024-03-07T00:13:25;61.17;;;34.72;;
24483;SDS011;12643;51.620;7.548;2024-03-07T00:15:54;66.47;;;36.17;;
24483;SDS011;12643;51.620;7.548;2024-03-07T00:18:22;59.80;;;34.15;;
24483;SDS011;12643;51.620;7.548;2024-03-07T00:20:50;60.50;;;34.70;;
24483;SDS011;12643;51.620;7.548;2024-03-07T00:23:18;57.55;;;31.67;;
24483;SDS011;12643;51.620;7.548;2024-03-07T00:25:45;58.05;;;31.98;;
24483;SDS011;12643;51.620;7.548;2024-03-07T00:28:14;54.78;;;32.72;;
24483;SDS011;12643;51.620;7.548;2024-03-07T00:30:43;51.50;;;32.05;;
24483;SDS011;12643;51.620;7.548;2024-03-07T00:33:12;54.83;;;31.00;;
24483;SDS011;12643;51.620;7.548;2024-03-07T00:35:40;54.55;;;30.85;;
24483;SDS011;12643;51.620;7.548;2024-03-07T00:38:10;46.20;;;28.42;;
24483;SDS011;12643;51.620;7.548;2024-03-07T00:40:37;56.30;;;32.25;;
24483;SDS011;12643;51.620;7.548;2024-03-07T00:43:05;57.72;;;32.80;;
24483;SDS011;12643;51.620;7.548;2024-03-07T00:45:33;59.85;;;32.30;;
24483;SDS011;12643;51.620;7.548;2024-03-07T00:48:01;59.78;;;32.88;;
24483;SDS011;12643;51.620;7.548;2024-03-07T00:50:30;59.38;;;33.13;;
24483;SDS011;12643;51.620;7.548;2024-03-07T00:52:58;53.17;;;30.98;;
24483;SDS011;12643;51.620;7.548;2024-03-07T00:55:26;53.70;;;30.38;;
24483;SDS011;12643;51.620;7.548;2024-03-07T00:57:53;60.33;;;34.83;;
24483;SDS011;12643;51.620;7.548;2024-03-07T01:00:21;60.75;;;33.42;;
24483;SDS011;12643;51.620;7.548;2024-03-07T01:02:49;60.65;;;35.15;;
24483;SDS011;12643;51.620;7.548;2024-03-07T01:05:18;62.55;;;36.72;;
24483;SDS011;12643;51.620;7.548;2024-03-07T01:07:48;63.42;;;36.28;;
24483;SDS011;12643;51.620;7.548;2024-03-07T01:10:16;68.28;;;37.00;;
24483;SDS011;12643;51.620;7.548;2024-03-07T01:12:43;62.22;;;35.80;;
24483;SDS011;12643;51.620;7.548;2024-03-07T01:15:11;63.70;;;35.20;;
24483;SDS011;12643;51.620;7.548;2024-03-07T01:17:40;60.22;;;33.97;;
24483;SDS011;12643;51.620;7.548;2024-03-07T01:20:08;62.00;;;34.95;;
24483;SDS011;12643;51.620;7.548;2024-03-07T01:22:37;49.30;;;30.92;;
24483;SDS011;12643;51.620;7.548;2024-03-07T01:25:06;54.33;;;32.25;;
24483;SDS011;12643;51.620;7.548;2024-03-07T01:27:34;56.05;;;31.88;;
24483;SDS011;12643;51.620;7.548;2024-03-07T01:30:03;53.28;;;30.52;;
24483;SDS011;12643;51.620;7.548;2024-03-07T01:32:33;54.65;;;31.40;;
24483;SDS011;12643;51.620;7.548;2024-03-07T01:35:01;51.38;;;29.10;;
24483;SDS011;12643;51.620;7.548;2024-03-07T01:37:29;49.85;;;28.35;;
24483;SDS011;12643;51.620;7.548;2024-03-07T01:39:56;50.05;;;26.25;;
24483;SDS011;12643;51.620;7.548;2024-03-07T01:42:25;50.78;;;29.17;;
24483;SDS011;12643;51.620;7.548;2024-03-07T01:44:53;60.28;;;33.53;;
24483;SDS011;12643;51.620;7.548;2024-03-07T01:47:21;50.63;;;29.08;;
24483;SDS011;12643;51.620;7.548;2024-03-07T01:49:49;51.90;;;29.05;;
24483;SDS011;12643;51.620;7.548;2024-03-07T01:52:17;47.38;;;28.90;;
24483;SDS011;12643;51.620;7.548;2024-03-07T01:54:45;49.83;;;29.17;;
24483;SDS011;12643;51.620;7.548;2024-03-07T01:57:13;55.17;;;30.63;;
24483;SDS011;12643;51.620;7.548;2024-03-07T01:59:45;45.55;;;27.50;;
24483;SDS011;12643;51.620;7.548;2024-03-07T02:05:04;60.90;;;34.55;;
24483;SDS011;12643;51.620;7.548;2024-03-07T02:07:32;56.88;;;32.17;;
24483;SDS011;12643;51.620;7.548;2024-03-07T02:10:00;67.05;;;35.67;;
24483;SDS011;12643;51.620;7.548;2024-03-07T02:12:29;53.35;;;33.55;;
24483;SDS011;12643;51.620;7.548;2024-03-07T02:14:58;49.30;;;29.50;;
24483;SDS011;12643;51.620;7.548;2024-03-07T02:17:26;58.53;;;32.65;;
24483;SDS011;12643;51.620;7.548;2024-03-07T02:19:54;63.03;;;33.25;;
24483;SDS011;12643;51.620;7.548;2024-03-07T02:22:23;59.50;;;35.15;;
24483;SDS011;12643;51.620;7.548;2024-03-07T02:24:51;59.63;;;32.65;;
24483;SDS011;12643;51.620;7.548;2024-03-07T02:27:19;59.47;;;33.22;;
24483;SDS011;12643;51.620;7.548;2024-03-07T02:29:47;59.88;;;33.97;;
24483;SDS011;12643;51.620;7.548;2024-03-07T02:32:17;60.63;;;34.92;;
24483;SDS011;12643;51.620;7.548;2024-03-07T02:34:44;55.70;;;33.47;;
24483;SDS011;12643;51.620;7.548;2024-03-07T02:37:13;59.83;;;33.15;;
24483;SDS011;12643;51.620;7.548;2024-03-07T02:39:42;50.80;;;30.02;;
24483;SDS011;12643;51.620;7.548;2024-03-07T02:42:10;48.60;;;29.17;;
24483;SDS011;12643;51.620;7.548;2024-03-07T02:44:40;50.15;;;29.95;;
24483;SDS011;12643;51.620;7.548;2024-03-07T02:47:07;47.20;;;27.90;;
24483;SDS011;12643;51.620;7.548;2024-03-07T02:49:35;52.35;;;28.35;;
24483;SDS011;12643;51.620;7.548;2024-03-07T02:52:03;53.00;;;29.42;;
24483;SDS011;12643;51.620;7.548;2024-03-07T02:54:33;52.78;;;30.23;;
24483;SDS011;12643;51.620;7.548;2024-03-07T02:57:26;43.58;;;27.65;;
24483;SDS011;12643;51.620;7.548;2024-03-07T02:59:54;50.25;;;28.52;;
24483;SDS011;12643;51.620;7.548;2024-03-07T03:02:22;47.65;;;28.02;;
24483;SDS011;12643;51.620;7.548;2024-03-07T03:04:50;42.70;;;27.48;;
24483;SDS011;12643;51.620;7.548;2024-03-07T03:07:20;44.70;;;26.50;;
24483;SDS011;12643;51.620;7.548;2024-03-07T03:09:48;43.42;;;25.65;;
24483;SDS011;12643;51.620;7.548;2024-03-07T03:12:16;45.63;;;27.60;;
24483;SDS011;12643;51.620;7.548;2024-03-07T03:14:47;46.20;;;26.85;;
24483;SDS011;12643;51.620;7.548;2024-03-07T03:17:15;45.88;;;27.20;;
24483;SDS011;12643;51.620;7.548;2024-03-07T03:19:43;42.05;;;26.88;;
24483;SDS011;12643;51.620;7.548;2024-03-07T03:22:11;44.72;;;25.92;;
24483;SDS011;12643;51.620;7.548;2024-03-07T03:24:39;45.33;;;26.80;;
24483;SDS011;12643;51.620;7.548;2024-03-07T03:27:07;48.17;;;29.10;;
24483;SDS011;12643;51.620;7.548;2024-03-07T03:29:36;48.28;;;28.30;;
24483;SDS011;12643;51.620;7.548;2024-03-07T03:32:05;41.58;;;25.10;;
24483;SDS011;12643;51.620;7.548;2024-03-07T03:34:33;41.53;;;24.23;;
24483;SDS011;12643;51.620;7.548;2024-03-07T03:37:01;51.47;;;30.90;;
24483;SDS011;12643;51.620;7.548;2024-03-07T03:39:28;51.92;;;30.92;;
24483;SDS011;12643;51.620;7.548;2024-03-07T03:41:56;49.17;;;29.83;;
24483;SDS011;12643;51.620;7.548;2024-03-07T03:44:24;60.42;;;32.05;;
24483;SDS011;12643;51.620;7.548;2024-03-07T03:46:51;53.58;;;31.58;;
24483;SDS011;12643;51.620;7.548;2024-03-07T03:49:21;53.53;;;32.53;;
24483;SDS011;12643;51.620;7.548;2024-03-07T03:51:48;60.22;;;33.25;;
24483;SDS011;12643;51.620;7.548;2024-03-07T03:54:16;55.90;;;31.42;;
24483;SDS011;12643;51.620;7.548;2024-03-07T03:56:44;59.25;;;31.85;;
24483;SDS011;12643;51.620;7.548;2024-03-07T03:59:12;60.28;;;32.80;;
24483;SDS011;12643;51.620;7.548;2024-03-07T04:01:39;53.35;;;31.27;;
24483;SDS011;12643;51.620;7.548;2024-03-07T04:04:07;53.13;;;32.90;;
24483;SDS011;12643;51.620;7.548;2024-03-07T04:06:36;61.00;;;34.38;;
24483;SDS011;12643;51.620;7.548;2024-03-07T04:09:04;57.33;;;33.08;;
24483;SDS011;12643;51.620;7.548;2024-03-07T04:11:32;52.53;;;32.10;;
24483;SDS011;12643;51.620;7.548;2024-03-07T04:14:00;57.17;;;33.33;;
24483;SDS011;12643;51.620;7.548;2024-03-07T04:16:28;61.40;;;33.17;;
24483;SDS011;12643;51.620;7.548;2024-03-07T04:18:56;55.53;;;32.83;;
24483;SDS011;12643;51.620;7.548;2024-03-07T04:21:23;64.90;;;32.38;;
24483;SDS011;12643;51.620;7.548;2024-03-07T04:23:53;53.83;;;32.67;;
24483;SDS011;12643;51.620;7.548;2024-03-07T04:26:21;61.83;;;34.28;;
24483;SDS011;12643;51.620;7.548;2024-03-07T04:28:49;63.35;;;32.75;;
24483;SDS011;12643;51.620;7.548;2024-03-07T04:31:17;58.70;;;33.78;;
24483;SDS011;12643;51.620;7.548;2024-03-07T04:33:45;54.80;;;32.45;;
24483;SDS011;12643;51.620;7.548;2024-03-07T04:36:13;56.75;;;31.35;;
24483;SDS011;12643;51.620;7.548;2024-03-07T04:38:40;58.63;;;32.85;;
24483;SDS011;12643;51.620;7.548;2024-03-07T04:41:12;54.80;;;30.83;;
24483;SDS011;12643;51.620;7.548;2024-03-07T04:43:40;52.65;;;31.88;;
24483;SDS011;12643;51.620;7.548;2024-03-07T04:46:09;58.88;;;31.55;;
24483;SDS011;12643;51.620;7.548;2024-03-07T04:48:36;53.55;;;32.00;;
24483;SDS011;12643;51.620;7.548;2024-03-07T04:51:04;57.33;;;32.47;;
24483;SDS011;12643;51.620;7.548;2024-03-07T04:53:33;55.42;;;32.53;;
24483;SDS011;12643;51.620;7.548;2024-03-07T04:56:03;49.00;;;30.25;;
24483;SDS011;12643;51.620;7.548;2024-03-07T04:58:33;51.58;;;30.40;;
24483;SDS011;12643;51.620;7.548;2024-03-07T05:01:01;56.38;;;31.30;;
24483;SDS011;12643;51.620;7.548;2024-03-07T05:03:29;49.42;;;29.95;;
24483;SDS011;12643;51.620;7.548;2024-03-07T05:05:57;51.85;;;31.67;;
24483;SDS011;12643;51.620;7.548;2024-03-07T05:08:25;58.25;;;32.42;;
24483;SDS011;12643;51.620;7.548;2024-03-07T05:10:53;51.80;;;29.48;;
24483;SDS011;12643;51.620;7.548;2024-03-07T05:13:21;54.03;;;32.03;;
24483;SDS011;12643;51.620;7.548;2024-03-07T05:15:51;52.70;;;31.23;;
24483;SDS011;12643;51.620;7.548;2024-03-07T05:18:18;59.85;;;32.50;;
24483;SDS011;12643;51.620;7.548;2024-03-07T05:20:46;55.00;;;32.03;;
24483;SDS011;12643;51.620;7.548;2024-03-07T05:23:14;54.05;;;30.77;;
24483;SDS011;12643;51.620;7.548;2024-03-07T05:25:42;51.90;;;31.35;;
24483;SDS011;12643;51.620;7.548;2024-03-07T05:28:11;52.40;;;31.08;;
24483;SDS011;12643;51.620;7.548;2024-03-07T05:30:39;55.78;;;30.50;;
24483;SDS011;12643;51.620;7.548;2024-03-07T05:33:08;52.85;;;30.20;;
24483;SDS011;12643;51.620;7.548;2024-03-07T05:35:37;57.17;;;32.65;;
24483;SDS011;12643;51.620;7.548;2024-03-07T05:38:05;52.10;;;29.80;;
24483;SDS011;12643;51.620;7.548;2024-03-07T05:40:33;51.65;;;31.92;;
24483;SDS011;12643;51.620;7.548;2024-03-07T05:43:01;50.72;;;30.92;;
24483;SDS011;12643;51.620;7.548;2024-03-07T05:45:29;50.13;;;30.33;;
24483;SDS011;12643;51.620;7.548;2024-03-07T05:47:57;55.63;;;31.63;;
24483;SDS011;12643;51.620;7.548;2024-03-07T05:50:41;52.50;;;31.42;;
24483;SDS011;12643;51.620;7.548;2024-03-07T05:53:09;50.42;;;30.10;;
24483;SDS011;12643;51.620;7.548;2024-03-07T05:55:37;53.35;;;31.95;;
24483;SDS011;12643;51.620;7.548;2024-03-07T05:58:05;53.70;;;31.65;;
24483;SDS011;12643;51.620;7.548;2024-03-07T06:00:32;53.95;;;31.08;;
24483;SDS011;12643;51.620;7.548;2024-03-07T06:03:00;54.30;;;31.95;;
24483;SDS011;12643;51.620;7.548;2024-03-07T06:05:28;54.85;;;32.42;;
24483;SDS011;12643;51.620;7.548;2024-03-07T06:07:57;55.78;;;32.83;;
24483;SDS011;12643;51.620;7.548;2024-03-07T06:10:25;56.70;;;33.10;;
24483;SDS011;12643;51.620;7.548;2024-03-07T06:12:53;53.50;;;31.67;;
24483;SDS011;12643;51.620;7.548;2024-03-07T06:15:21;59.15;;;32.58;;
24483;SDS011;12643;51.620;7.548;2024-03-07T06:17:50;50.10;;;31.83;;
24483;SDS011;12643;51.620;7.548;2024-03-07T06:20:19;52.92;;;30.92;;
24483;SDS011;12643;51.620;7.548;2024-03-07T06:22:50;58.05;;;33.83;;
24483;SDS011;12643;51.620;7.548;2024-03-07T06:25:20;59.15;;;32.20;;
24483;SDS011;12643;51.620;7.548;2024-03-07T06:27:59;50.80;;;31.02;;
24483;SDS011;12643;51.620;7.548;2024-03-07T06:30:35;55.25;;;32.20;;
24483;SDS011;12643;51.620;7.548;2024-03-07T06:33:03;55.80;;;32.95;;
24483;SDS011;12643;51.620;7.548;2024-03-07T06:35:31;60.35;;;34.45;;
24483;SDS011;12643;51.620;7.548;2024-03-07T06:38:03;57.65;;;33.85;;
24483;SDS011;12643;51.620;7.548;2024-03-07T06:40:35;54.63;;;32.85;;
24483;SDS011;12643;51.620;7.548;2024-03-07T06:43:03;60.92;;;33.20;;
24483;SDS011;12643;51.620;7.548;2024-03-07T06:45:32;55.13;;;34.03;;
24483;SDS011;12643;51.620;7.548;2024-03-07T06:48:00;58.15;;;32.50;;
24483;SDS011;12643;51.620;7.548;2024-03-07T06:50:28;57.97;;;33.53;;
24483;SDS011;12643;51.620;7.548;2024-03-07T06:52:56;57.13;;;32.92;;
24483;SDS011;12643;51.620;7.548;2024-03-07T06:55:24;58.80;;;32.97;;
24483;SDS011;12643;51.620;7.548;2024-03-07T06:57:54;57.85;;;32.78;;
24483;SDS011;12643;51.620;7.548;2024-03-07T07:00:22;56.15;;;33.53;;
24483;SDS011;12643;51.620;7.548;2024-03-07T07:02:52;62.67;;;35.55;;
24483;SDS011;12643;51.620;7.548;2024-03-07T07:05:20;57.42;;;31.67;;
24483;SDS011;12643;51.620;7.548;2024-03-07T07:07:48;58.03;;;33.05;;
24483;SDS011;12643;51.620;7.548;2024-03-07T07:10:16;56.95;;;33.15;;
24483;SDS011;12643;51.620;7.548;2024-03-07T07:12:44;51.05;;;32.63;;
24483;SDS011;12643;51.620;7.548;2024-03-07T07:15:15;60.88;;;33.92;;
24483;SDS011;12643;51.620;7.548;2024-03-07T07:17:44;56.30;;;33.08;;
24483;SDS011;12643;51.620;7.548;2024-03-07T07:20:12;55.83;;;32.70;;
24483;SDS011;12643;51.620;7.548;2024-03-07T07:22:40;51.55;;;31.02;;
24483;SDS011;12643;51.620;7.548;2024-03-07T07:25:08;53.67;;;32.38;;
24483;SDS011;12643;51.620;7.548;2024-03-07T07:27:40;53.97;;;31.02;;
24483;SDS011;12643;51.620;7.548;2024-03-07T07:30:09;58.22;;;32.88;;
24483;SDS011;12643;51.620;7.548;2024-03-07T07:32:39;58.78;;;34.63;;
24483;SDS011;12643;51.620;7.548;2024-03-07T07:35:08;53.67;;;34.00;;
24483;SDS011;12643;51.620;7.548;2024-03-07T07:37:38;53.65;;;32.03;;
24483;SDS011;12643;51.620;7.548;2024-03-07T07:40:06;52.85;;;32.50;;
24483;SDS011;12643;51.620;7.548;2024-03-07T07:42:38;54.53;;;32.30;;
24483;SDS011;12643;51.620;7.548;2024-03-07T07:45:07;52.85;;;31.63;;
24483;SDS011;12643;51.620;7.548;2024-03-07T07:47:39;55.95;;;33.58;;
24483;SDS011;12643;51.620;7.548;2024-03-07T07:50:07;54.57;;;33.13;;
24483;SDS011;12643;51.620;7.548;2024-03-07T07:52:42;51.47;;;31.55;;
24483;SDS011;12643;51.620;7.548;2024-03-07T07:55:10;63.40;;;33.88;;
24483;SDS011;12643;51.620;7.548;2024-03-07T07:57:41;55.60;;;32.75;;
24483;SDS011;12643;51.620;7.548;2024-03-07T08:00:13;55.40;;;32.50;;
24483;SDS011;12643;51.620;7.548;2024-03-07T08:02:49;51.08;;;32.45;;
24483;SDS011;12643;51.620;7.548;2024-03-07T08:05:19;56.42;;;32.83;;
24483;SDS011;12643;51.620;7.548;2024-03-07T08:07:48;55.90;;;31.67;;
24483;SDS011;12643;51.620;7.548;2024-03-07T08:10:16;59.42;;;33.70;;
24483;SDS011;12643;51.620;7.548;2024-03-07T08:12:45;55.92;;;32.65;;
24483;SDS011;12643;51.620;7.548;2024-03-07T08:15:14;55.78;;;31.58;;
24483;SDS011;12643;51.620;7.548;2024-03-07T08:17:43;52.20;;;32.70;;
24483;SDS011;12643;51.620;7.548;2024-03-07T08:20:13;50.30;;;31.73;;
24483;SDS011;12643;51.620;7.548;2024-03-07T08:22:44;52.88;;;32.75;;
24483;SDS011;12643;51.620;7.548;2024-03-07T08:25:12;47.53;;;30.63;;
24483;SDS011;12643;51.620;7.548;2024-03-07T08:27:41;52.15;;;31.05;;
24483;SDS011;12643;51.620;7.548;2024-03-07T08:30:11;53.08;;;32.05;;
24483;SDS011;12643;51.620;7.548;2024-03-07T08:32:40;49.40;;;30.60;;
24483;SDS011;12643;51.620;7.548;2024-03-07T08:35:08;54.53;;;30.63;;
24483;SDS011;12643;51.620;7.548;2024-03-07T08:37:38;46.42;;;29.02;;
24483;SDS011;12643;51.620;7.548;2024-03-07T08:40:08;50.25;;;30.60;;
24483;SDS011;12643;51.620;7.548;2024-03-07T08:42:36;46.60;;;29.27;;
24483;SDS011;12643;51.620;7.548;2024-03-07T08:45:04;49.60;;;31.08;;
24483;SDS011;12643;51.620;7.548;2024-03-07T08:47:36;50.10;;;30.10;;
24483;SDS011;12643;51.620;7.548;2024-03-07T08:50:05;48.50;;;29.35;;
24483;SDS011;12643;51.620;7.548;2024-03-07T08:52:34;48.08;;;30.30;;
24483;SDS011;12643;51.620;7.548;2024-03-07T08:55:05;44.03;;;28.92;;
24483;SDS011;12643;51.620;7.548;2024-03-07T08:57:35;50.45;;;29.50;;
24483;SDS011;12643;51.620;7.548;2024-03-07T09:00:03;50.67;;;31.02;;
24483;SDS011;12643;51.620;7.548;2024-03-07T09:02:33;47.67;;;28.95;;
24483;SDS011;12643;51.620;7.548;2024-03-07T09:05:01;46.30;;;29.02;;
24483;SDS011;12643;51.620;7.548;2024-03-07T09:07:29;48.90;;;31.08;;
24483;SDS011;12643;51.620;7.548;2024-03-07T09:09:57;48.65;;;28.70;;
24483;SDS011;12643;51.620;7.548;2024-03-07T09:12:27;46.40;;;28.35;;
24483;SDS011;12643;51.620;7.548;2024-03-07T09:14:55;48.28;;;28.35;;
24483;SDS011;12643;51.620;7.548;2024-03-07T09:17:23;47.42;;;29.40;;
24483;SDS011;12643;51.620;7.548;2024-03-07T09:19:50;49.55;;;29.50;;
24483;SDS011;12643;51.620;7.548;2024-03-07T09:22:18;49.47;;;29.48;;
24483;SDS011;12643;51.620;7.548;2024-03-07T09:24:46;49.95;;;29.05;;
24483;SDS011;12643;51.620;7.548;2024-03-07T09:27:14;45.45;;;28.50;;
24483;SDS011;12643;51.620;7.548;2024-03-07T09:29:46;47.58;;;29.15;;
24483;SDS011;12643;51.620;7.548;2024-03-07T09:32:14;46.65;;;27.17;;
24483;SDS011;12643;51.620;7.548;2024-03-07T09:34:42;44.38;;;27.70;;
24483;SDS011;12643;51.620;7.548;2024-03-07T09:37:11;44.88;;;27.40;;
24483;SDS011;12643;51.620;7.548;2024-03-07T09:39:39;46.53;;;28.13;;
24483;SDS011;12643;51.620;7.548;2024-03-07T09:42:07;44.85;;;28.83;;
24483;SDS011;12643;51.620;7.548;2024-03-07T09:44:36;49.60;;;28.52;;
24483;SDS011;12643;51.620;7.548;2024-03-07T09:47:09;49.53;;;29.13;;
24483;SDS011;12643;51.620;7.548;2024-03-07T09:49:37;48.80;;;29.25;;
24483;SDS011;12643;51.620;7.548;2024-03-07T09:52:06;51.50;;;27.42;;
24483;SDS011;12643;51.620;7.548;2024-03-07T09:54:38;44.50;;;26.98;;
24483;SDS011;12643;51.620;7.548;2024-03-07T09:57:06;45.08;;;28.42;;
24483;SDS011;12643;51.620;7.548;2024-03-07T09:59:35;46.20;;;28.10;;
24483;SDS011;12643;51.620;7.548;2024-03-07T10:02:05;47.00;;;27.98;;
24483;SDS011;12643;51.620;7.548;2024-03-07T10:04:38;46.30;;;29.58;;
24483;SDS011;12643;51.620;7.548;2024-03-07T10:07:10;47.03;;;29.08;;
24483;SDS011;12643;51.620;7.548;2024-03-07T10:09:39;42.22;;;27.92;;
24483;SDS011;12643;51.620;7.548;2024-03-07T10:12:07;43.97;;;27.63;;
24483;SDS011;12643;51.620;7.548;2024-03-07T10:14:37;43.55;;;27.20;;
24483;SDS011;12643;51.620;7.548;2024-03-07T10:17:06;44.05;;;27.20;;
24483;SDS011;12643;51.620;7.548;2024-03-07T10:19:35;46.25;;;26.42;;
24483;SDS011;12643;51.620;7.548;2024-03-07T10:22:04;41.38;;;26.90;;
24483;SDS011;12643;51.620;7.548;2024-03-07T10:24:32;45.95;;;27.65;;
24483;SDS011;12643;51.620;7.548;2024-03-07T10:27:00;43.58;;;27.13;;
24483;SDS011;12643;51.620;7.548;2024-03-07T10:29:29;40.13;;;25.70;;
24483;SDS011;12643;51.620;7.548;2024-03-07T10:31:58;40.88;;;25.92;;
24483;SDS011;12643;51.620;7.548;2024-03-07T10:34:25;41.90;;;24.92;;
24483;SDS011;12643;51.620;7.548;2024-03-07T10:37:01;41.78;;;26.20;;
24483;SDS011;12643;51.620;7.548;2024-03-07T10:39:30;39.60;;;24.73;;
24483;SDS011;12643;51.620;7.548;2024-03-07T10:41:59;38.08;;;25.13;;
24483;SDS011;12643;51.620;7.548;2024-03-07T10:44:30;40.55;;;24.98;;
24483;SDS011;12643;51.620;7.548;2024-03-07T10:47:04;39.45;;;24.55;;
24483;SDS011;12643;51.620;7.548;2024-03-07T10:49:33;41.40;;;24.05;;
24483;SDS011;12643;51.620;7.548;2024-03-07T10:52:08;38.35;;;25.95;;
24483;SDS011;12643;51.620;7.548;2024-03-07T10:54:47;42.88;;;23.92;;
24483;SDS011;12643;51.620;7.548;2024-03-07T10:57:23;38.75;;;24.23;;
24483;SDS011;12643;51.620;7.548;2024-03-07T11:00:00;40.33;;;23.73;;
24483;SDS011;12643;51.620;7.548;2024-03-07T11:02:49;36.63;;;22.27;;
24483;SDS011;12643;51.620;7.548;2024-03-07T11:05:19;35.88;;;24.40;;
24483;SDS011;12643;51.620;7.548;2024-03-07T11:07:51;33.67;;;22.85;;
24483;SDS011;12643;51.620;7.548;2024-03-07T11:10:19;36.13;;;23.90;;
24483;SDS011;12643;51.620;7.548;2024-03-07T11:12:48;37.15;;;23.02;;
24483;SDS011;12643;51.620;7.548;2024-03-07T11:15:16;34.70;;;22.75;;
24483;SDS011;12643;51.620;7.548;2024-03-07T11:17:45;34.47;;;21.50;;
24483;SDS011;12643;51.620;7.548;2024-03-07T11:20:18;37.42;;;23.50;;
24483;SDS011;12643;51.620;7.548;2024-03-07T11:22:46;36.65;;;23.50;;
24483;SDS011;12643;51.620;7.548;2024-03-07T11:25:18;32.28;;;21.92;;
24483;SDS011;12643;51.620;7.548;2024-03-07T11:27:54;33.08;;;21.55;;
24483;SDS011;12643;51.620;7.548;2024-03-07T11:30:23;36.33;;;22.60;;
24483;SDS011;12643;51.620;7.548;2024-03-07T11:32:52;33.42;;;22.30;;
24483;SDS011;12643;51.620;7.548;2024-03-07T11:35:30;36.38;;;22.95;;
24483;SDS011;12643;51.620;7.548;2024-03-07T11:38:01;33.95;;;21.15;;
24483;SDS011;12643;51.620;7.548;2024-03-07T11:40:47;30.60;;;20.63;;
24483;SDS011;12643;51.620;7.548;2024-03-07T11:43:18;33.80;;;21.52;;
24483;SDS011;12643;51.620;7.548;2024-03-07T11:45:46;29.67;;;21.35;;
24483;SDS011;12643;51.620;7.548;2024-03-07T11:48:17;33.17;;;21.15;;
24483;SDS011;12643;51.620;7.548;2024-03-07T11:50:47;30.17;;;20.85;;
24483;SDS011;12643;51.620;7.548;2024-03-07T11:53:16;29.05;;;19.95;;
24483;SDS011;12643;51.620;7.548;2024-03-07T11:55:44;29.52;;;21.02;;
24483;SDS011;12643;51.620;7.548;2024-03-07T11:58:15;31.25;;;19.77;;
24483;SDS011;12643;51.620;7.548;2024-03-07T12:00:44;29.52;;;20.13;;
24483;SDS011;12643;51.620;7.548;2024-03-07T12:03:12;26.27;;;19.05;;
24483;SDS011;12643;51.620;7.548;2024-03-07T12:05:42;25.75;;;17.60;;
24483;SDS011;12643;51.620;7.548;2024-03-07T12:08:11;28.67;;;18.88;;
24483;SDS011;12643;51.620;7.548;2024-03-07T12:10:39;27.88;;;19.48;;
24483;SDS011;12643;51.620;7.548;2024-03-07T12:13:09;29.67;;;19.55;;
24483;SDS011;12643;51.620;7.548;2024-03-07T12:15:39;25.45;;;18.13;;
24483;SDS011;12643;51.620;7.548;2024-03-07T12:18:07;29.52;;;19.20;;
24483;SDS011;12643;51.620;7.548;2024-03-07T12:20:40;27.58;;;19.20;;
24483;SDS011;12643;51.620;7.548;2024-03-07T12:23:13;27.63;;;18.88;;
24483;SDS011;12643;51.620;7.548;2024-03-07T12:25:45;29.25;;;18.52;;
24483;SDS011;12643;51.620;7.548;2024-03-07T12:28:13;31.77;;;18.00;;
24483;SDS011;12643;51.620;7.548;2024-03-07T12:30:51;28.45;;;18.13;;
24483;SDS011;12643;51.620;7.548;2024-03-07T12:33:22;23.90;;;16.20;;
24483;SDS011;12643;51.620;7.548;2024-03-07T12:35:51;23.38;;;16.00;;
24483;SDS011;12643;51.620;7.548;2024-03-07T12:38:25;27.08;;;16.33;;
24483;SDS011;12643;51.620;7.548;2024-03-07T12:41:04;23.08;;;15.75;;
24483;SDS011;12643;51.620;7.548;2024-03-07T12:43:35;23.73;;;15.85;;
24483;SDS011;12643;51.620;7.548;2024-03-07T12:46:05;27.13;;;16.55;;
24483;SDS011;12643;51.620;7.548;2024-03-07T12:49:01;22.60;;;14.23;;
24483;SDS011;12643;51.620;7.548;2024-03-07T12:51:56;22.38;;;13.88;;
24483;SDS011;12643;51.620;7.548;2024-03-07T12:57:23;26.48;;;14.65;;
24483;SDS011;12643;51.620;7.548;2024-03-07T12:59:54;21.42;;;14.52;;
24483;SDS011;12643;51.620;7.548;2024-03-07T13:03:02;20.70;;;12.82;;
24483;SDS011;12643;51.620;7.548;2024-03-07T13:05:31;21.23;;;13.43;;
24483;SDS011;12643;51.620;7.548;2024-03-07T13:08:28;22.48;;;14.02;;
24483;SDS011;12643;51.620;7.548;2024-03-07T13:10:55;38.17;;;15.15;;
24483;SDS011;12643;51.620;7.548;2024-03-07T13:13:25;17.52;;;11.93;;
24483;SDS011;12643;51.620;7.548;2024-03-07T13:16:22;42.83;;;15.60;;
24483;SDS011;12643;51.620;7.548;2024-03-07T13:19:04;46.53;;;15.05;;
24483;SDS011;12643;51.620;7.548;2024-03-07T13:21:34;20.38;;;13.80;;
24483;SDS011;12643;51.620;7.548;2024-03-07T13:24:02;24.00;;;14.60;;
24483;SDS011;12643;51.620;7.548;2024-03-07T13:26:32;26.15;;;14.35;;
24483;SDS011;12643;51.620;7.548;2024-03-07T13:29:02;23.73;;;14.75;;
24483;SDS011;12643;51.620;7.548;2024-03-07T13:31:30;26.85;;;15.82;;
24483;SDS011;12643;51.620;7.548;2024-03-07T13:33:58;23.67;;;15.52;;
24483;SDS011;12643;51.620;7.548;2024-03-07T13:36:28;22.35;;;15.65;;
24483;SDS011;12643;51.620;7.548;2024-03-07T13:38:56;24.95;;;15.05;;
24483;SDS011;12643;51.620;7.548;2024-03-07T13:41:24;26.23;;;14.93;;
24483;SDS011;12643;51.620;7.548;2024-03-07T13:43:54;23.98;;;14.65;;
24483;SDS011;12643;51.620;7.548;2024-03-07T13:46:22;24.92;;;15.43;;
24483;SDS011;12643;51.620;7.548;2024-03-07T13:48:50;33.95;;;15.85;;
24483;SDS011;12643;51.620;7.548;2024-03-07T13:51:19;27.98;;;16.02;;
24483;SDS011;12643;51.620;7.548;2024-03-07T13:53:49;33.88;;;17.40;;
24483;SDS011;12643;51.620;7.548;2024-03-07T14:02:25;25.98;;;17.23;;
24483;SDS011;12643;51.620;7.548;2024-03-07T14:08:33;26.30;;;15.85;;
24483;SDS011;12643;51.620;7.548;2024-03-07T14:11:49;26.00;;;16.08;;
24483;SDS011;12643;51.620;7.548;2024-03-07T14:15:04;34.95;;;15.65;;
24483;SDS011;12643;51.620;7.548;2024-03-07T14:18:19;25.52;;;16.50;;
24483;SDS011;12643;51.620;7.548;2024-03-07T14:21:40;21.80;;;15.85;;
24483;SDS011;12643;51.620;7.548;2024-03-07T14:24:25;27.52;;;16.08;;
24483;SDS011;12643;51.620;7.548;2024-03-07T14:27:25;28.23;;;16.80;;
24483;SDS011;12643;51.620;7.548;2024-03-07T14:30:04;30.50;;;17.50;;
24483;SDS011;12643;51.620;7.548;2024-03-07T14:32:52;32.22;;;17.60;;
24483;SDS011;12643;51.620;7.548;2024-03-07T14:35:22;28.92;;;17.33;;
24483;SDS011;12643;51.620;7.548;2024-03-07T14:37:55;29.40;;;16.95;;
24483;SDS011;12643;51.620;7.548;2024-03-07T14:40:32;34.40;;;17.90;;
24483;SDS011;12643;51.620;7.548;2024-03-07T14:43:02;30.23;;;17.55;;
24483;SDS011;12643;51.620;7.548;2024-03-07T14:45:35;30.23;;;17.55;;
24483;SDS011;12643;51.620;7.548;2024-03-07T14:48:05;29.70;;;17.50;;
24483;SDS011;12643;51.620;7.548;2024-03-07T14:50:35;27.08;;;17.08;;
24483;SDS011;12643;51.620;7.548;2024-03-07T14:53:06;31.10;;;16.83;;
24483;SDS011;12643;51.620;7.548;2024-03-07T14:55:37;28.92;;;17.40;;